Troy, Minnesota
Current Conditions -  °F | °C
As of 5:15 AM on Sunday 23 Nov 2014 (Local Time) from KONA Reporting Station
Overcast Overcast  
Wind Chill: 54°   Ceiling: 4300
Heat Index: 54°   Visibility: 10mi
Dew Point: 50°   Wind: 7mph
Humidity: 88%   Direction: 200°SSW
Pressure: 29.53"   Gusts: NA
Location:  43.9334°N, 92.0195°W
Report Text: KONA 231115Z AUTO 20006KT 10SM SCT012 SCT035 OVC043 12/10 A2953 RMK AO2
Loading
Personal Weather Stations






























Interactive Weather Map New forecast layout! Learn more

10-Day Weather Forecast

Advertisements
Track Severe Weather on mobile